• Join FlightAware (Why Join?)
  • Login
  • US Flag 
11:17AM EST


 

Airport Tracker/Info


-or-


 

Live Flight TrackerFlight Track Log ✈ N683FE ✈ 07-Apr-2013 ✈ CYYC - KGTF

Flight Track Log - Related Links

Times and Time Zones

All times are in EDT time to prevent confusion due to time zone crossing. See the N683FE flight status page for this flight to view local times or setup timezone preferences in your user account.

Time Position Orientation Groundspeed Altitude Reporting Facility
EDT Latitude Longitude Course Direction KTS MPH feet Rate Location/Type
07:23AM 51.1340 -114.0220 129° Southeast 6,200  Level FlightAware
07:24AM 51.1620 -114.0200 North 7,800 660 Climbing FlightAware
07:24AM 51.1770 -114.0140 14° North 8,400 660 Climbing FlightAware
07:24AM 51.1880 -114.0010 37° Northeast 8,900 600 Climbing FlightAware
07:24AM 51.1990 -113.9730 58° Northeast 9,800 600 Climbing FlightAware
07:26AM 51.1370 -113.8100 121° Southeast 14,600 600 Climbing FlightAware
07:26AM 51.0740 -113.7680 157° South 17,500 420 Climbing FlightAware
07:28AM 50.8900 -113.6350 155° Southeast 23,800 300 Climbing FlightAware
07:29AM 50.8120 -113.5790 156° South 25,500 60 Climbing FlightAware
07:29AM 50.7260 -113.5170 155° Southeast 28,100 -60 Climbing FlightAware
07:30AM 50.6260 -113.4480 156° South 30,800 -180 Climbing FlightAware
07:31AM 50.5250 -113.3770 156° South 31,000 -300 Climbing FlightAware
07:33AM 50.3700 -113.2710 156° South 31,000 -360 Level FlightAware
07:33AM 50.2790 -113.2090 156° South 31,000 -360 Level FlightAware
07:34AM 50.1940 -113.1510 156° South 31,000 -360 Level FlightAware
07:35AM 50.1180 -113.1000 157° South 31,000 -360 Level FlightAware
07:36AM 50.0310 -113.0410 156° South 31,000 -420 Level FlightAware
07:36AM 49.9570 -112.9900 156° South 31,000 -420 Level FlightAware
07:37AM 49.8920 -112.9460 156° South 31,000 -420 Level FlightAware
07:38AM 49.8130 -112.8940 157° South 31,000 -480 Level FlightAware
07:38AM 49.7200 -112.8320 157° South 31,000 -480 Level FlightAware
07:39AM 49.6450 -112.7820 157° South 31,000 -540 Level FlightAware
07:40AM 49.5620 -112.7270 157° South 31,000 -540 Level FlightAware
07:40AM 49.4860 -112.6760 156° South 31,000 -600 Level FlightAware
07:41AM 49.4050 -112.6140 154° Southeast 31,000 -600 Level FlightAware
07:42AM 49.3350 -112.5500 149° Southeast 31,000 -660 Level FlightAware
07:43AM 49.2540 -112.4750 149° Southeast 31,000 -720 Level FlightAware
07:43AM 49.1850 -112.4120 149° Southeast 31,000 -780 Level FlightAware
07:44AM 49.1150 -112.3480 149° Southeast 31,000 -900 Level FlightAware
07:45AM 49.0330 -112.2740 149° Southeast 31,000 -960 Level FlightAware
07:45AM 48.9630 -112.2100 149° Southeast 31,000 -1,080 Level FlightAware
07:47AM 48.8090 -112.0730 150° Southeast 30,900 -1,260 Descending FlightAware
07:49AM 48.5800 -111.8690 149° Southeast 27,100 -1,800 Descending FlightAware
07:50AM 48.5031 -111.8008 149° Southeast 417 480 25,400 -2,100 Descending Salt Lake Center
07:51AM 48.4083 -111.7169 150° Southeast 402 463 23,200 -2,100 Descending Salt Lake Center
07:52AM 48.3169 -111.6378 150° Southeast 388 447 21,200 -2,100 Descending Salt Lake Center
07:53AM 48.2275 -111.5583 149° Southeast 378 435 19,000 -2,100 Descending Salt Lake Center
07:54AM 48.1389 -111.4831 150° Southeast 371 427 17,000 -2,100 Descending Salt Lake Center
07:55AM 48.0533 -111.4089 150° Southeast 360 414 14,900 -1,560 Descending Salt Lake Center
07:56AM 47.9686 -111.3358 150° Southeast 357 411 13,900 -1,260 Descending Salt Lake Center
07:57AM 47.8858 -111.2656 150° Southeast 351 404 12,400 -1,800 Descending Salt Lake Center
07:58AM 47.8106 -111.2006 150° Southeast 333 383 10,400 -1,500 Descending Salt Lake Center
07:59AM 47.7375 -111.1372 150° Southeast 316 364 9,400 -900 Descending Salt Lake Center
08:00AM 47.6722 -111.0972 158° South 279 321 8,600 -1,080 Descending Salt Lake Center
08:01AM 47.6258 -111.1536 219° Southwest 237 273 7,300 -1,200 Descending Salt Lake Center
08:02AM 47.5858 -111.2119 225° Southwest 214 246 6,300 -960 Descending Salt Lake Center
08:03AM 47.5528 -111.2617 225° Southwest 190 219 5,400 -780 Descending Salt Lake Center
08:04AM 47.5300 -111.2942 224° Southwest 144 166 4,800 -600 Descending Salt Lake Center
08:05AM 47.5086 -111.3258 225° Southwest 122 140 4,200 -600 Descending Salt Lake Center
08:06AM 47.4875 -111.3572 225° Southwest 113 130 3,600 -600 Descending Salt Lake Center
08:08AM 47.4827 -111.3706 222° Southwest  Level Estimated